Alda, Nebraska
Current Conditions -  °F | °C
As of 11:10 PM on Wednesday 22 Oct 2014 (Local Time) from KGRI Reporting Station
Haze Haze  
Wind Chill: 59°   Ceiling: 1800
Heat Index: 59°   Visibility: 2mi
Dew Point: 58°   Wind: 5mph
Humidity: 96%   Direction: 320°NW
Pressure: 30.05"   Gusts: NA
Location:  40.87°N, 98.47°W
Report Text: KGRI 230410Z AUTO 32004KT 2SM BR OVC018 15/14 A3005 RMK AO2 T01500144
Loading
Personal Weather Stations






























Interactive Weather Map
Tropical Storm Tracking
New forecast layout! Learn more

10-Day Weather Forecast

Advertisements
Track Severe Weather on mobile